Fort Wayne, Indiana
Current Conditions -  °F | °C
As of 5:54 AM on Monday 20 Oct 2014 (Local Time) from KFWA Reporting Station
Overcast Overcast  
Wind Chill: 44°   Ceiling: 8000
Heat Index: 48°   Visibility: 10mi
Dew Point: 43°   Wind: 9mph
Humidity: 83%   Direction: 200°SSW
Pressure: 29.92"   Gusts: NA
Location:  41.08°N, 85.1°W
Report Text: KFWA 200954Z 20008KT 10SM BKN080 OVC100 09/06 A2992 RMK AO2 SLP134 T00890061
Loading
Personal Weather Stations






























Interactive Weather Map New forecast layout! Learn more

10-Day Weather Forecast

Advertisements
Track Severe Weather on mobile